Time;durP1;ratioP1;P1;durP2;ratioP2;P2;SDS_P1;SDS_P2;PMS_P1;PMS_P2;Temp;Humidity;BMP_temperature;BMP_pressure;BME280_temperature;BME280_humidity;BME280_pressure;Samples;Min_cycle;Max_cycle;Signal;HPM_P1;HPM_P2
2022/11/02 00:01:48;;;;;;;8.32;3.00;;;13.30;99.90;;;;;;4940125;28;89289;-29
2022/11/02 00:04:14;;;;;;;8.77;2.50;;;13.30;99.90;;;;;;4940375;28;90308;-30
2022/11/02 00:06:40;;;;;;;3.25;2.00;;;13.40;99.90;;;;;;4939649;28;90759;-33
2022/11/02 00:09:06;;;;;;;6.30;2.92;;;13.50;99.90;;;;;;4939087;28;89687;-30
2022/11/02 00:11:32;;;;;;;7.75;2.58;;;13.40;99.90;;;;;;4940583;28;89700;-33
2022/11/02 00:13:58;;;;;;;7.82;3.55;;;13.40;99.90;;;;;;4939743;28;89374;-32
2022/11/02 00:16:24;;;;;;;10.00;1.75;;;13.40;99.90;;;;;;4940217;28;89708;-31
2022/11/02 00:18:54;;;;;;;5.30;2.65;;;13.30;99.90;;;;;;4939778;28;89369;-30
2022/11/02 00:21:21;;;;;;;14.13;2.63;;;13.30;99.90;;;;;;4940188;28;88506;-29
2022/11/02 00:23:48;;;;;;;6.35;2.10;;;13.20;99.90;;;;;;4939336;28;90808;-32
2022/11/02 00:26:14;;;;;;;8.25;2.67;;;13.20;99.90;;;;;;4939929;28;89898;-33
2022/11/02 00:28:39;;;;;;;5.00;2.30;;;13.20;99.90;;;;;;4939916;28;89887;-33
2022/11/02 00:31:05;;;;;;;5.35;2.00;;;13.00;99.90;;;;;;4940387;28;88566;-32
2022/11/02 00:33:30;;;;;;;5.35;1.92;;;12.90;99.90;;;;;;4939983;28;90639;-28
2022/11/02 00:35:56;;;;;;;7.28;2.55;;;12.90;99.90;;;;;;4938720;28;90391;-31
2022/11/02 00:38:22;;;;;;;7.05;2.67;;;12.80;99.90;;;;;;4938906;28;90537;-30
2022/11/02 00:40:47;;;;;;;3.83;2.08;;;12.80;99.90;;;;;;4939390;28;88943;-31
2022/11/02 00:43:13;;;;;;;4.22;1.80;;;12.70;99.90;;;;;;4939323;28;90154;-31
2022/11/02 00:45:39;;;;;;;5.90;2.42;;;12.70;99.90;;;;;;4939369;28;91174;-32
2022/11/02 00:48:05;;;;;;;7.00;2.47;;;12.80;99.90;;;;;;4939795;28;90452;-31
2022/11/02 00:50:30;;;;;;;5.40;2.30;;;12.80;99.90;;;;;;4939971;28;89878;-30
2022/11/02 00:52:56;;;;;;;6.50;2.80;;;12.80;99.90;;;;;;4921489;28;90456;-31
2022/11/02 00:55:23;;;;;;;8.20;3.13;;;12.70;99.90;;;;;;4939365;28;89652;-33
2022/11/02 00:57:48;;;;;;;8.10;3.15;;;12.70;99.90;;;;;;4939586;28;90138;-31
2022/11/02 01:00:15;;;;;;;7.30;3.22;;;12.60;99.90;;;;;;4939910;28;89194;-32
2022/11/02 01:02:40;;;;;;;5.20;2.65;;;12.70;99.90;;;;;;4938903;28;90378;-31
2022/11/02 01:05:08;;;;;;;17.48;3.38;;;12.70;99.90;;;;;;4938950;28;89566;-30
2022/11/02 01:07:34;;;;;;;11.57;4.03;;;12.60;99.90;;;;;;4939406;28;88998;-28
2022/11/02 01:09:59;;;;;;;10.93;2.85;;;12.60;99.90;;;;;;4939591;28;88877;-31
2022/11/02 01:12:25;;;;;;;12.07;3.53;;;12.50;99.90;;;;;;4938882;28;89558;-30
2022/11/02 01:14:51;;;;;;;6.40;3.10;;;12.60;99.90;;;;;;4938994;28;89507;-32
2022/11/02 01:17:18;;;;;;;14.07;3.63;;;12.50;99.90;;;;;;4939489;28;90582;-30
2022/11/02 01:19:43;;;;;;;10.30;3.47;;;12.40;99.90;;;;;;4938901;28;89160;-31
2022/11/02 01:22:09;;;;;;;8.50;3.50;;;12.40;99.90;;;;;;4939230;28;90364;-30
2022/11/02 01:24:35;;;;;;;4.95;3.58;;;12.50;99.90;;;;;;4938572;28;90649;-30
2022/11/02 01:27:00;;;;;;;10.27;3.72;;;12.30;99.90;;;;;;4938848;28;89632;-33
2022/11/02 01:29:26;;;;;;;10.00;2.90;;;12.30;99.90;;;;;;4939483;28;89434;-31
2022/11/02 01:31:52;;;;;;;16.38;3.65;;;12.30;99.90;;;;;;4939022;28;90342;-32
2022/11/02 01:34:19;;;;;;;12.90;3.85;;;12.30;99.90;;;;;;4939577;28;89292;-30
2022/11/02 01:36:45;;;;;;;14.95;4.43;;;12.40;99.90;;;;;;4938678;28;90297;-31
2022/11/02 01:39:11;;;;;;;8.55;3.17;;;12.30;99.90;;;;;;4940961;28;89474;-33
2022/11/02 01:41:37;;;;;;;6.30;3.38;;;12.30;99.90;;;;;;4943095;28;90210;-33
2022/11/02 01:44:04;;;;;;;12.43;3.78;;;12.40;99.90;;;;;;4941756;28;89568;-30
2022/11/02 01:46:41;;;;;;;6.65;3.35;;;12.30;99.90;;;;;;4941745;28;89266;-32
2022/11/02 01:49:15;;;;;;;17.33;3.97;;;12.30;99.90;;;;;;4924472;28;90559;-31
2022/11/02 01:51:58;;;;;;;7.97;3.45;;;12.10;99.90;;;;;;4941437;28;89541;-30
2022/11/02 01:54:31;;;;;;;8.23;3.03;;;12.00;99.90;;;;;;4929597;28;89667;-30
2022/11/02 01:57:02;;;;;;;6.40;3.63;;;12.10;99.90;;;;;;4941835;28;89594;-33
2022/11/02 01:59:36;;;;;;;9.50;3.10;;;12.10;99.90;;;;;;4941919;28;89032;-30
2022/11/02 02:02:06;;;;;;;9.18;3.05;;;12.10;99.90;;;;;;4942383;28;90258;-31
2022/11/02 02:04:32;;;;;;;10.55;4.50;;;12.10;99.90;;;;;;4942049;28;90863;-30
2022/11/02 02:06:58;;;;;;;8.32;2.80;;;12.10;99.90;;;;;;4941980;28;89335;-34
2022/11/02 02:09:25;;;;;;;6.65;2.95;;;12.20;99.90;;;;;;4941932;28;88817;-30
2022/11/02 02:11:50;;;;;;;6.32;3.78;;;12.20;99.90;;;;;;4942256;28;90076;-29
2022/11/02 02:14:18;;;;;;;8.32;3.33;;;12.20;99.90;;;;;;4940995;28;90442;-29
2022/11/02 02:17:13;;;;;;;11.98;2.88;;;12.30;99.90;;;;;;4941647;28;90846;-33
2022/11/02 02:20:00;;;;;;;9.38;3.80;;;12.30;99.90;;;;;;4942366;28;89936;-33
2022/11/02 02:22:42;;;;;;;8.10;3.35;;;12.30;99.90;;;;;;4941654;28;89347;-29
2022/11/02 02:25:41;;;;;;;4.97;2.40;;;12.20;99.90;;;;;;4941563;28;89791;-33
2022/11/02 02:28:24;;;;;;;7.50;3.28;;;12.20;99.90;;;;;;4941370;28;89828;-32
2022/11/02 02:30:57;;;;;;;6.25;3.30;;;12.20;99.90;;;;;;4942376;28;89251;-30
2022/11/02 02:33:46;;;;;;;9.90;3.30;;;12.30;99.90;;;;;;4942056;28;90418;-31
2022/11/02 02:36:29;;;;;;;5.47;2.55;;;12.30;99.90;;;;;;4941642;28;89976;-30
2022/11/02 02:39:06;;;;;;;5.55;2.90;;;12.40;99.90;;;;;;4940401;28;89169;-33
2022/11/02 02:41:41;;;;;;;7.70;3.30;;;12.50;99.90;;;;;;4939568;28;90581;-29
2022/11/02 02:44:19;;;;;;;7.93;4.28;;;12.50;99.90;;;;;;4941581;28;90237;-33
2022/11/02 02:46:59;;;;;;;6.30;2.70;;;12.50;99.90;;;;;;4941201;28;90426;-29
2022/11/02 02:49:34;;;;;;;8.75;3.10;;;12.50;99.90;;;;;;4940171;28;90355;-31
2022/11/02 02:52:00;;;;;;;13.13;3.53;;;12.30;99.90;;;;;;4940652;28;89514;-33
2022/11/02 02:54:31;;;;;;;4.70;2.40;;;12.10;99.90;;;;;;4941527;28;89221;-33
2022/11/02 02:57:04;;;;;;;4.45;2.55;;;12.00;99.90;;;;;;4940390;28;89141;-34
2022/11/02 02:59:39;;;;;;;6.85;3.17;;;12.00;99.90;;;;;;4941084;28;89230;-30
2022/11/02 03:02:10;;;;;;;3.42;2.20;;;11.90;99.90;;;;;;4941345;28;89208;-30
2022/11/02 03:04:36;;;;;;;2.47;1.75;;;11.80;99.90;;;;;;4941314;28;88440;-32
2022/11/02 03:07:02;;;;;;;8.25;2.42;;;11.80;99.90;;;;;;4941036;28;90716;-29
2022/11/02 03:09:39;;;;;;;13.02;4.05;;;11.70;99.90;;;;;;4940622;28;90347;-32
2022/11/02 03:12:33;;;;;;;5.38;2.95;;;11.70;99.90;;;;;;4941239;28;88669;-31
2022/11/02 03:14:59;;;;;;;7.55;2.92;;;11.70;99.90;;;;;;4940820;28;90160;-32
2022/11/02 03:17:42;;;;;;;7.90;3.47;;;11.80;99.90;;;;;;4940346;28;90330;-32
2022/11/02 03:20:21;;;;;;;9.48;2.17;;;11.80;99.90;;;;;;4941235;28;90599;-32
2022/11/02 03:23:17;;;;;;;3.20;2.50;;;11.90;99.90;;;;;;4941127;28;89115;-30
2022/11/02 03:25:56;;;;;;;7.18;2.30;;;11.90;99.90;;;;;;4941097;28;90003;-31
2022/11/02 03:28:53;;;;;;;3.60;1.80;;;11.90;99.90;;;;;;4941446;28;89713;-28
2022/11/02 03:31:35;;;;;;;10.02;1.63;;;11.80;99.90;;;;;;4908619;28;90080;-28
2022/11/02 03:34:34;;;;;;;4.38;1.63;;;11.80;99.90;;;;;;4940410;28;90230;-33
2022/11/02 03:37:11;;;;;;;6.13;1.75;;;11.70;99.90;;;;;;4930943;28;89883;-35
2022/11/02 03:39:50;;;;;;;4.70;1.23;;;11.60;99.90;;;;;;4940646;28;90178;-29
2022/11/02 03:42:21;;;;;;;4.53;1.25;;;11.60;99.90;;;;;;4941150;28;88490;-31
2022/11/02 03:44:55;;;;;;;3.92;1.58;;;11.50;99.90;;;;;;4940100;28;89866;-34
2022/11/02 03:47:21;;;;;;;6.90;1.73;;;11.50;99.90;;;;;;4940541;28;90367;-33
2022/11/02 03:49:50;;;;;;;4.93;1.33;;;11.40;99.90;;;;;;4939555;28;90339;-30
2022/11/02 03:52:25;;;;;;;4.20;1.65;;;11.40;99.90;;;;;;4940435;28;89469;-33
2022/11/02 03:54:50;;;;;;;6.03;2.03;;;11.30;99.90;;;;;;4940392;28;87766;-29
2022/11/02 03:57:21;;;;;;;3.47;2.15;;;11.30;99.90;;;;;;4939907;28;89353;-32
2022/11/02 03:59:47;;;;;;;6.60;1.77;;;11.30;99.90;;;;;;4939521;28;91249;-33
2022/11/02 04:02:14;;;;;;;6.18;1.55;;;11.30;99.90;;;;;;4940202;28;90434;-31
2022/11/02 04:04:48;;;;;;;2.43;1.27;;;11.30;99.90;;;;;;4955805;28;88657;-32
2022/11/02 04:07:16;;;;;;;3.50;1.50;;;11.20;99.90;;;;;;4939894;28;90343;-33
2022/11/02 04:09:41;;;;;;;5.28;1.92;;;11.10;99.90;;;;;;4940088;28;89510;-29
2022/11/02 04:14:52;;;;;;;6.93;2.03;;;11.20;99.90;;;;;;4939836;28;89434;-32
2022/11/02 04:20:01;;;;;;;4.18;1.50;;;11.20;99.90;;;;;;4939556;28;89786;-30
2022/11/02 04:25:19;;;;;;;4.97;1.80;;;11.20;99.90;;;;;;4939210;28;88582;-31
2022/11/02 04:27:50;;;;;;;3.33;1.85;;;11.30;99.90;;;;;;4939989;28;90274;-32
2022/11/02 04:30:21;;;;;;;5.25;2.70;;;11.30;99.90;;;;;;4940209;28;90242;-31
2022/11/02 04:35:34;;;;;;;9.10;2.63;;;11.20;99.90;;;;;;4940120;28;89159;-33
2022/11/02 04:40:44;;;;;;;6.05;2.85;;;11.20;99.90;;;;;;4998805;28;89718;-30
2022/11/02 04:43:10;;;;;;;5.25;2.60;;;11.30;99.90;;;;;;4999785;28;89314;-33
2022/11/02 04:45:36;;;;;;;4.53;1.88;;;11.30;99.90;;;;;;4998770;28;89871;-29
2022/11/02 04:48:04;;;;;;;6.55;2.55;;;11.40;99.90;;;;;;4997146;28;91520;-29
2022/11/02 04:50:30;;;;;;;6.65;1.98;;;11.40;99.90;;;;;;4986515;28;90621;-33
2022/11/02 04:53:00;;;;;;;8.15;2.47;;;11.40;99.90;;;;;;4998857;28;90383;-32
2022/11/02 04:55:26;;;;;;;12.73;3.85;;;11.40;99.90;;;;;;4998544;28;88532;-32
2022/11/02 04:57:52;;;;;;;4.90;2.92;;;11.40;99.90;;;;;;4998198;28;91400;-32
2022/11/02 05:00:20;;;;;;;5.60;2.45;;;11.50;99.90;;;;;;4999106;28;89458;-29
2022/11/02 05:02:47;;;;;;;12.63;2.50;;;11.60;99.90;;;;;;4998968;28;89674;-29
2022/11/02 05:05:13;;;;;;;6.20;2.83;;;11.60;99.90;;;;;;4998473;28;89237;-32
2022/11/02 05:07:39;;;;;;;8.88;2.78;;;11.60;99.90;;;;;;4999709;28;90068;-30
2022/11/02 05:10:05;;;;;;;5.47;2.58;;;11.60;99.90;;;;;;4998354;28;88624;-31
2022/11/02 05:12:30;;;;;;;6.15;2.88;;;11.60;99.90;;;;;;4998801;28;90060;-31
2022/11/02 05:14:56;;;;;;;8.13;2.90;;;11.70;99.90;;;;;;5001928;28;90257;-32
2022/11/02 05:17:22;;;;;;;5.25;2.55;;;11.70;99.90;;;;;;5001796;28;88427;-31
2022/11/02 05:19:47;;;;;;;6.55;3.55;;;11.70;99.90;;;;;;5002243;28;90125;-32
2022/11/02 05:22:13;;;;;;;13.55;3.17;;;11.80;99.90;;;;;;5002120;28;90444;-31
2022/11/02 05:24:39;;;;;;;9.40;2.83;;;11.80;99.90;;;;;;5002532;28;87639;-29
2022/11/02 05:27:05;;;;;;;9.43;3.03;;;11.80;99.90;;;;;;5001207;28;90281;-30
2022/11/02 05:29:30;;;;;;;6.65;2.67;;;11.80;99.90;;;;;;5001754;28;89279;-32
2022/11/02 05:31:56;;;;;;;10.35;2.88;;;11.70;99.90;;;;;;5002412;28;89620;-32
2022/11/02 05:34:22;;;;;;;6.63;1.88;;;11.70;99.90;;;;;;5001075;28;89184;-30
2022/11/02 05:36:48;;;;;;;8.88;3.30;;;11.80;99.90;;;;;;5002163;28;90628;-32
2022/11/02 05:39:14;;;;;;;9.00;3.05;;;11.80;99.90;;;;;;5000439;28;90563;-30
2022/11/02 05:41:39;;;;;;;13.00;3.63;;;11.70;99.90;;;;;;5001809;28;90310;-33
2022/11/02 05:44:05;;;;;;;8.85;3.33;;;11.70;99.90;;;;;;5002285;28;87617;-29
2022/11/02 05:46:30;;;;;;;6.07;1.73;;;11.70;99.90;;;;;;5001558;28;90211;-30
2022/11/02 05:48:56;;;;;;;9.27;3.17;;;11.70;99.90;;;;;;4992394;28;89807;-32
2022/11/02 05:51:22;;;;;;;8.52;3.03;;;11.70;99.90;;;;;;4996451;28;89438;-32
2022/11/02 05:53:47;;;;;;;20.25;3.08;;;11.60;99.90;;;;;;5001576;28;88205;-29
2022/11/02 05:56:13;;;;;;;6.70;2.97;;;11.50;99.90;;;;;;5002226;28;91096;-30
2022/11/02 05:58:39;;;;;;;7.85;3.00;;;11.50;99.90;;;;;;5001270;28;89263;-29
2022/11/02 06:01:06;;;;;;;8.27;3.08;;;11.40;99.90;;;;;;5001448;28;89120;-30
2022/11/02 06:03:32;;;;;;;14.97;4.17;;;11.40;99.90;;;;;;5001069;28;90536;-31
2022/11/02 06:06:00;;;;;;;14.98;3.70;;;11.40;99.90;;;;;;5000921;28;89853;-32
2022/11/02 06:08:26;;;;;;;9.13;3.10;;;11.30;99.90;;;;;;5001447;28;89579;-33
2022/11/02 06:10:52;;;;;;;7.53;3.13;;;11.10;99.90;;;;;;5000469;28;89559;-32
2022/11/02 06:13:17;;;;;;;6.55;2.72;;;11.00;99.90;;;;;;5001190;28;88816;-29
2022/11/02 06:15:43;;;;;;;10.15;4.10;;;11.10;99.90;;;;;;5001074;28;90260;-30
2022/11/02 06:18:09;;;;;;;11.52;3.35;;;11.10;99.90;;;;;;5001043;28;90808;-28
2022/11/02 06:20:35;;;;;;;18.88;3.97;;;11.10;99.90;;;;;;5001305;28;89602;-30
2022/11/02 06:23:00;;;;;;;10.85;4.38;;;11.10;99.90;;;;;;5000530;28;89477;-30
2022/11/02 06:25:26;;;;;;;10.23;4.03;;;11.10;99.90;;;;;;5000505;28;90148;-29
2022/11/02 06:27:55;;;;;;;12.93;3.92;;;11.10;99.90;;;;;;5000467;28;91359;-32
2022/11/02 06:30:25;;;;;;;10.48;3.40;;;11.00;99.90;;;;;;5001441;28;90308;-30
2022/11/02 06:32:53;;;;;;;11.10;4.35;;;11.00;99.90;;;;;;5001338;28;89737;-30
2022/11/02 06:35:20;;;;;;;13.25;3.35;;;11.00;99.90;;;;;;5000403;28;89958;-30
2022/11/02 06:37:46;;;;;;;11.65;3.85;;;11.00;99.90;;;;;;5000170;28;89497;-28
2022/11/02 06:40:12;;;;;;;13.00;4.13;;;10.90;99.90;;;;;;5000925;28;89528;-29
2022/11/02 06:42:39;;;;;;;9.48;3.70;;;10.90;99.90;;;;;;5000193;28;88245;-30
2022/11/02 06:45:05;;;;;;;7.10;3.50;;;10.90;99.90;;;;;;5000993;28;90040;-30
2022/11/02 06:47:33;;;;;;;10.02;3.70;;;10.90;99.90;;;;;;5000604;28;89882;-30
2022/11/02 06:49:59;;;;;;;10.40;3.50;;;10.80;99.90;;;;;;4986194;28;89516;-32
2022/11/02 06:52:25;;;;;;;13.13;3.50;;;10.80;99.90;;;;;;5000691;28;89224;-30
2022/11/02 06:54:51;;;;;;;8.18;3.85;;;10.80;99.90;;;;;;4999437;28;90342;-33
2022/11/02 06:57:17;;;;;;;11.50;3.90;;;10.90;99.90;;;;;;5000498;28;90313;-30
2022/11/02 06:59:42;;;;;;;7.65;2.75;;;10.90;99.90;;;;;;4999870;28;89184;-31
2022/11/02 07:02:08;;;;;;;13.93;3.80;;;10.90;99.90;;;;;;5000404;28;89391;-31
2022/11/02 07:04:34;;;;;;;11.38;4.07;;;10.90;99.90;;;;;;5000269;28;90056;-30
2022/11/02 07:07:00;;;;;;;10.02;4.13;;;10.90;99.90;;;;;;5000577;28;89434;-30
2022/11/02 07:09:25;;;;;;;11.07;3.80;;;10.90;99.90;;;;;;5000446;28;89534;-30
2022/11/02 07:11:51;;;;;;;11.80;3.80;;;10.90;99.90;;;;;;5000775;28;89799;-30
2022/11/02 07:14:17;;;;;;;15.00;4.15;;;10.90;99.90;;;;;;4999713;28;90188;-30
2022/11/02 07:16:42;;;;;;;16.67;4.47;;;11.00;99.90;;;;;;4999338;28;90570;-33
2022/11/02 07:19:08;;;;;;;9.32;3.72;;;11.00;99.90;;;;;;4998763;28;90270;-31
2022/11/02 07:21:34;;;;;;;5.85;3.08;;;11.00;99.90;;;;;;4999551;28;90321;-33
2022/11/02 07:23:59;;;;;;;10.57;3.85;;;10.90;99.90;;;;;;4999197;28;90451;-32
2022/11/02 07:26:28;;;;;;;23.65;4.70;;;11.00;99.90;;;;;;4999647;28;89436;-30
2022/11/02 07:28:53;;;;;;;;;;;11.00;99.90;;;;;;5000275;28;89449;-32
2022/11/02 07:31:19;;;;;;;9.48;3.63;;;11.20;99.90;;;;;;5002085;28;88610;-29
2022/11/02 07:33:44;;;;;;;9.65;3.58;;;11.30;99.90;;;;;;4999973;28;90791;-31
2022/11/02 07:36:10;;;;;;;10.10;4.00;;;11.30;99.90;;;;;;4994399;28;89965;-31
2022/11/02 07:38:36;;;;;;;11.10;4.25;;;11.40;99.90;;;;;;4998907;28;89786;-31
2022/11/02 07:41:01;;;;;;;8.20;3.75;;;11.40;99.90;;;;;;4998964;28;89849;-31
2022/11/02 07:43:27;;;;;;;10.45;3.08;;;11.40;99.90;;;;;;4998398;28;91614;-31
2022/11/02 07:45:53;;;;;;;12.43;4.05;;;11.50;99.90;;;;;;4999218;28;89209;-31
2022/11/02 07:48:19;;;;;;;16.98;4.15;;;11.40;99.90;;;;;;4995960;28;88877;-29
2022/11/02 07:50:45;;;;;;;10.13;4.07;;;11.30;99.90;;;;;;4989654;28;90193;-31
2022/11/02 07:53:10;;;;;;;12.30;4.03;;;11.20;99.90;;;;;;4999688;28;90240;-29
2022/11/02 07:55:36;;;;;;;7.53;3.47;;;11.20;99.90;;;;;;4999591;28;89619;-32
2022/11/02 07:58:04;;;;;;;9.55;3.40;;;11.10;99.90;;;;;;4997182;28;89741;-31
2022/11/02 08:00:36;;;;;;;6.97;2.80;;;11.10;99.90;;;;;;4998809;28;88703;-34
2022/11/02 08:03:03;;;;;;;12.40;3.90;;;11.20;99.90;;;;;;4980957;28;90422;-29
2022/11/02 08:05:30;;;;;;;7.35;3.00;;;11.30;99.90;;;;;;4983654;28;90439;-31
2022/11/02 08:08:00;;;;;;;12.63;4.10;;;11.20;99.90;;;;;;4987957;28;90346;-32
2022/11/02 08:10:27;;;;;;;10.27;3.30;;;11.10;99.90;;;;;;4993907;28;89723;-29
2022/11/02 08:12:53;;;;;;;13.10;4.00;;;11.10;99.90;;;;;;4984133;28;90538;-32
2022/11/02 08:15:19;;;;;;;9.48;3.30;;;11.10;99.90;;;;;;4987181;28;88740;-30
2022/11/02 08:17:45;;;;;;;7.75;3.03;;;11.10;99.90;;;;;;4987890;28;90217;-28
2022/11/02 08:20:10;;;;;;;11.60;3.47;;;11.10;99.90;;;;;;4980832;28;90322;-30
2022/11/02 08:22:37;;;;;;;12.45;3.42;;;11.10;99.90;;;;;;4981747;28;91310;-31
2022/11/02 08:25:03;;;;;;;6.13;3.53;;;11.10;99.90;;;;;;4995723;28;91657;-30
2022/11/02 08:27:28;;;;;;;11.93;3.80;;;11.20;99.90;;;;;;4987521;28;89214;-32
2022/11/02 08:29:54;;;;;;;9.48;3.55;;;11.30;99.90;;;;;;4995626;28;89927;-32
2022/11/02 08:32:20;;;;;;;19.45;4.55;;;11.30;99.90;;;;;;4996837;28;90334;-29
2022/11/02 08:34:45;;;;;;;14.13;3.40;;;11.30;99.90;;;;;;4996706;28;89532;-29
2022/11/02 08:37:11;;;;;;;12.30;4.20;;;11.30;99.90;;;;;;4994282;28;89842;-32
2022/11/02 08:39:36;;;;;;;7.75;3.22;;;11.40;99.90;;;;;;4987394;28;90262;-31
2022/11/02 08:42:02;;;;;;;11.43;3.13;;;11.40;99.90;;;;;;4996959;28;90366;-30
2022/11/02 08:44:28;;;;;;;10.05;4.07;;;11.50;99.90;;;;;;4997136;28;89835;-32
2022/11/02 08:46:54;;;;;;;13.35;3.13;;;11.60;99.90;;;;;;4996854;28;89547;-29
2022/11/02 08:49:20;;;;;;;9.30;2.95;;;11.60;99.90;;;;;;4987104;28;89054;-30
2022/11/02 08:51:46;;;;;;;10.52;3.05;;;11.60;99.90;;;;;;4998734;28;90268;-32
2022/11/02 08:54:11;;;;;;;6.15;3.63;;;11.70;99.90;;;;;;4999106;28;90902;-30
2022/11/02 08:56:37;;;;;;;8.57;3.60;;;11.70;99.90;;;;;;5000346;28;89056;-30
2022/11/02 08:59:02;;;;;;;7.20;2.47;;;11.90;99.90;;;;;;5000473;28;89823;-29
2022/11/02 09:01:28;;;;;;;6.63;3.33;;;12.00;99.90;;;;;;4999885;28;90180;-28
2022/11/02 09:03:54;;;;;;;8.73;2.20;;;12.20;99.90;;;;;;5000078;28;89289;-29
2022/11/02 09:06:19;;;;;;;7.03;3.13;;;12.20;99.90;;;;;;4998104;28;89788;-31
2022/11/02 09:08:45;;;;;;;9.30;2.53;;;12.30;99.90;;;;;;4985148;28;88551;-30
2022/11/02 09:11:10;;;;;;;3.10;2.70;;;12.40;99.90;;;;;;4990263;28;90027;-28
2022/11/02 09:13:37;;;;;;;4.45;1.67;;;12.40;99.90;;;;;;5000700;28;88955;-28
2022/11/02 09:16:03;;;;;;;6.45;2.78;;;12.30;99.90;;;;;;4998389;28;88789;-31
2022/11/02 09:18:29;;;;;;;10.27;2.58;;;12.50;99.90;;;;;;4998507;28;89316;-32
2022/11/02 09:20:55;;;;;;;8.00;2.95;;;12.40;99.90;;;;;;4999174;28;90058;-28
2022/11/02 09:23:21;;;;;;;10.73;2.25;;;12.40;99.90;;;;;;4993179;28;89896;-31
2022/11/02 09:25:47;;;;;;;14.20;2.50;;;12.30;99.90;;;;;;4998443;28;89305;-30
2022/11/02 09:28:14;;;;;;;10.30;2.83;;;12.40;99.90;;;;;;4988900;28;89651;-32
2022/11/02 09:30:40;;;;;;;9.98;2.67;;;12.40;99.90;;;;;;4983780;28;89904;-32
2022/11/02 09:33:06;;;;;;;7.82;2.53;;;12.40;99.90;;;;;;4978462;28;89875;-30
2022/11/02 09:35:38;;;;;;;11.30;2.85;;;12.40;99.90;;;;;;4985226;28;90214;-30
2022/11/02 09:38:04;;;;;;;3.13;1.65;;;12.50;99.90;;;;;;4999065;28;90023;-32
2022/11/02 09:40:43;;;;;;;10.57;1.75;;;12.70;99.90;;;;;;4998710;28;90650;-28
2022/11/02 09:43:24;;;;;;;9.98;2.70;;;12.70;99.90;;;;;;4992276;28;90973;-28
2022/11/02 09:46:03;;;;;;;9.68;6.60;;;12.90;99.90;;;;;;4994385;28;90767;-31
2022/11/02 09:48:33;;;;;;;7.72;2.40;;;12.80;99.90;;;;;;4998244;28;88517;-31
2022/11/02 09:51:16;;;;;;;7.32;1.80;;;12.80;99.90;;;;;;4984896;28;90520;-28
2022/11/02 09:53:57;;;;;;;5.18;2.35;;;12.90;99.90;;;;;;4998058;28;89322;-31
2022/11/02 09:56:23;;;;;;;7.45;2.35;;;13.00;99.90;;;;;;4997261;28;91328;-29
2022/11/02 09:59:16;;;;;;;9.82;3.30;;;13.10;99.90;;;;;;4997603;28;87765;-28
2022/11/02 10:02:07;;;;;;;3.88;2.25;;;13.00;99.90;;;;;;4994629;28;90318;-28
2022/11/02 10:04:44;;;;;;;5.60;2.70;;;13.10;99.90;;;;;;4998247;28;90010;-31
2022/11/02 10:07:37;;;;;;;12.80;2.83;;;13.10;99.90;;;;;;4998165;28;89625;-32
2022/11/02 10:10:16;;;;;;;7.15;3.03;;;13.10;99.90;;;;;;4997103;28;89071;-27
2022/11/02 10:12:55;;;;;;;3.55;2.15;;;13.00;99.90;;;;;;4998258;28;90025;-27
2022/11/02 10:15:40;;;;;;;7.88;2.25;;;13.10;99.90;;;;;;4997575;28;89710;-29
2022/11/02 10:18:12;;;;;;;4.75;1.73;;;13.20;99.90;;;;;;4998350;28;89786;-31
2022/11/02 10:20:46;;;;;;;6.78;2.85;;;13.20;99.90;;;;;;4997916;28;89223;-31
2022/11/02 10:23:47;;;;;;;6.43;2.42;;;13.20;99.90;;;;;;4998539;28;90325;-30
2022/11/02 10:26:21;;;;;;;9.77;3.20;;;13.20;99.90;;;;;;4983664;28;90230;-31
2022/11/02 10:28:49;;;;;;;8.63;2.58;;;13.20;99.90;;;;;;4998033;28;89343;-29
2022/11/02 10:31:33;;;;;;;8.18;2.55;;;13.20;99.90;;;;;;4998539;28;89327;-32
2022/11/02 10:34:25;;;;;;;8.68;3.97;;;13.20;99.90;;;;;;4998185;28;90241;-30
2022/11/02 10:37:08;;;;;;;9.77;2.80;;;13.20;99.90;;;;;;4987008;28;90831;-30
2022/11/02 10:39:48;;;;;;;8.95;2.42;;;13.20;99.90;;;;;;4997491;28;89319;-29
2022/11/02 10:42:35;;;;;;;5.15;1.85;;;13.40;99.90;;;;;;4998425;28;88944;-29
2022/11/02 10:45:25;;;;;;;9.05;2.10;;;13.50;99.90;;;;;;4998580;28;90218;-29
2022/11/02 10:48:27;;;;;;;10.88;2.58;;;13.60;99.90;;;;;;4997615;28;88552;-29
2022/11/02 10:51:11;;;;;;;6.85;2.30;;;13.90;99.90;;;;;;4988497;28;90772;-29
2022/11/02 10:53:42;;;;;;;11.23;2.85;;;14.00;99.90;;;;;;4997833;28;90094;-31
2022/11/02 10:56:17;;;;;;;5.13;2.83;;;14.00;99.90;;;;;;4998283;28;91640;-29
2022/11/02 10:59:12;;;;;;;16.40;3.72;;;14.00;99.90;;;;;;4997509;28;89406;-31
2022/11/02 11:02:05;;;;;;;10.48;3.20;;;13.80;99.90;;;;;;4998120;28;88860;-28
2022/11/02 11:04:32;;;;;;;4.30;2.55;;;13.80;99.90;;;;;;4987210;28;88730;-29
2022/11/02 11:07:04;;;;;;;13.82;2.55;;;13.70;99.90;;;;;;4996125;28;91779;-30
2022/11/02 11:09:45;;;;;;;12.30;2.90;;;13.70;99.90;;;;;;4997928;28;89639;-30
2022/11/02 11:12:22;;;;;;;11.40;3.05;;;13.70;99.90;;;;;;4997291;28;89417;-32
2022/11/02 11:14:52;;;;;;;5.75;2.25;;;13.90;99.90;;;;;;4982955;28;88824;-32
2022/11/02 11:17:23;;;;;;;7.97;2.53;;;14.00;99.90;;;;;;4996043;28;90431;-29
2022/11/02 11:19:54;;;;;;;3.53;2.90;;;14.20;99.90;;;;;;4987115;28;89952;-31
2022/11/02 11:22:49;;;;;;;5.15;1.88;;;14.30;99.90;;;;;;4983116;28;89547;-33
2022/11/02 11:25:20;;;;;;;4.78;1.73;;;14.40;99.90;;;;;;4994252;28;90382;-31
2022/11/02 11:27:53;;;;;;;6.63;2.55;;;14.50;99.90;;;;;;4990880;28;90305;-32
2022/11/02 11:30:37;;;;;;;9.07;2.42;;;14.50;99.90;;;;;;4996074;28;90950;-30
2022/11/02 11:33:05;;;;;;;8.65;2.97;;;14.50;99.90;;;;;;4991044;28;89769;-31
2022/11/02 11:35:37;;;;;;;9.18;1.70;;;14.60;99.90;;;;;;4997598;28;89477;-28
2022/11/02 11:38:25;;;;;;;10.60;1.92;;;14.60;99.90;;;;;;4996421;28;90440;-29
2022/11/02 11:40:54;;;;;;;3.97;1.35;;;14.50;99.90;;;;;;4993634;28;89306;-31
2022/11/02 11:43:24;;;;;;;7.05;2.45;;;14.40;99.90;;;;;;4997522;28;89558;-31
2022/11/02 11:46:00;;;;;;;3.47;1.70;;;14.20;99.90;;;;;;4993072;28;89509;-31
2022/11/02 11:48:44;;;;;;;1.67;0.93;;;14.30;99.90;;;;;;4992126;28;90822;-29
2022/11/02 11:51:25;;;;;;;8.82;2.00;;;14.40;99.90;;;;;;4990517;28;90041;-30
2022/11/02 11:54:17;;;;;;;7.43;2.20;;;14.40;99.90;;;;;;4996717;28;89397;-32
2022/11/02 11:56:42;;;;;;;11.43;3.45;;;14.20;99.90;;;;;;4996692;28;90131;-29
2022/11/02 11:59:29;;;;;;;5.78;2.53;;;14.10;99.90;;;;;;4996811;28;90727;-32
2022/11/02 12:01:59;;;;;;;4.72;2.50;;;14.00;99.90;;;;;;4997068;28;88944;-28
2022/11/02 12:04:36;;;;;;;7.70;2.65;;;13.90;99.90;;;;;;4996531;28;89480;-31
2022/11/02 12:07:42;;;;;;;3.03;2.03;;;13.80;99.90;;;;;;4996225;28;87723;-32
2022/11/02 12:10:13;;;;;;;6.07;2.22;;;13.70;99.90;;;;;;4997349;28;90369;-31
2022/11/02 12:13:34;;;;;;;8.23;2.60;;;13.50;99.90;;;;;;4997357;28;89030;-33
2022/11/02 12:16:13;;;;;;;9.45;2.10;;;13.40;99.90;;;;;;4978238;28;89291;-32
2022/11/02 12:19:05;;;;;;;5.97;2.38;;;13.30;99.90;;;;;;4997025;28;88561;-29
2022/11/02 12:21:57;;;;;;;3.25;2.13;;;13.50;99.90;;;;;;4996910;28;90204;-30
2022/11/02 12:24:50;;;;;;;5.63;1.73;;;13.80;99.90;;;;;;4995417;28;90761;-30
2022/11/02 12:27:40;;;;;;;7.25;1.70;;;14.00;99.90;;;;;;4983607;28;90469;-30
2022/11/02 12:30:13;;;;;;;6.15;2.28;;;14.20;99.90;;;;;;4997645;28;90206;-29
2022/11/02 12:33:16;;;;;;;4.00;2.35;;;14.30;99.90;;;;;;4996451;28;88855;-30
2022/11/02 12:36:15;;;;;;;11.02;2.38;;;14.30;99.90;;;;;;4996383;28;89804;-30
2022/11/02 12:39:02;;;;;;;10.95;2.28;;;14.00;99.90;;;;;;4995882;28;90423;-30
2022/11/02 12:41:40;;;;;;;6.32;1.95;;;14.00;99.90;;;;;;4996759;28;89443;-32
2022/11/02 12:44:13;;;;;;;9.63;2.85;;;14.00;99.90;;;;;;4997443;28;90732;-32
2022/11/02 12:46:45;;;;;;;4.78;1.85;;;14.00;99.90;;;;;;4997004;28;89801;-33
2022/11/02 12:49:45;;;;;;;15.60;2.53;;;14.20;99.90;;;;;;4986168;28;89605;-28
2022/11/02 12:52:36;;;;;;;7.53;2.00;;;14.20;99.90;;;;;;4985292;28;90026;-29
2022/11/02 12:55:05;;;;;;;9.30;2.60;;;14.20;99.90;;;;;;4996852;28;90439;-30
2022/11/02 12:57:37;;;;;;;7.43;2.05;;;14.10;99.90;;;;;;4996857;28;89279;-30
2022/11/02 13:00:18;;;;;;;3.50;1.92;;;14.10;99.90;;;;;;4997081;28;89178;-32
2022/11/02 13:03:01;;;;;;;5.20;2.05;;;14.00;99.90;;;;;;4997169;28;90248;-29
2022/11/02 13:05:33;;;;;;;4.97;2.35;;;13.90;99.90;;;;;;4996737;28;89715;-31
2022/11/02 13:08:13;;;;;;;2.70;1.67;;;13.90;99.90;;;;;;4995299;28;89614;-31
2022/11/02 13:10:51;;;;;;;4.57;1.63;;;14.00;99.90;;;;;;4996598;28;89604;-32
2022/11/02 13:13:25;;;;;;;4.68;2.47;;;14.00;99.90;;;;;;4997026;28;88795;-32
2022/11/02 13:15:52;;;;;;;5.57;2.25;;;14.10;99.90;;;;;;4997089;28;89352;-29
2022/11/02 13:18:30;;;;;;;6.53;2.22;;;14.20;99.90;;;;;;5004202;28;90692;-29
2022/11/02 13:20:59;;;;;;;6.47;2.55;;;14.30;99.90;;;;;;4990401;28;90114;-30